createdAt,value
2019-04-04T00:00:06.932Z,36.28
2019-04-04T00:02:40.621Z,36.27
2019-04-04T00:05:14.411Z,36.39
2019-04-04T00:07:47.856Z,35.80
2019-04-04T00:10:21.389Z,36.01
2019-04-04T00:12:55.731Z,35.78
2019-04-04T00:15:30.624Z,35.74
2019-04-04T00:18:04.433Z,35.51
2019-04-04T00:20:37.862Z,35.81
2019-04-04T00:23:11.264Z,35.58
2019-04-04T00:25:44.923Z,36.00
2019-04-04T00:28:19.056Z,35.64
2019-04-04T00:30:52.647Z,35.91
2019-04-04T00:33:26.413Z,35.28
2019-04-04T00:36:00.697Z,35.13
2019-04-04T00:38:36.043Z,35.13
2019-04-04T00:41:13.013Z,34.66
2019-04-04T00:43:47.217Z,34.95
2019-04-04T00:46:22.176Z,34.72
2019-04-04T00:48:55.717Z,34.36
2019-04-04T00:51:29.345Z,33.81
2019-04-04T00:54:03.859Z,33.97
2019-04-04T00:56:37.614Z,33.64
2019-04-04T00:59:11.058Z,33.67
2019-04-04T01:01:46.363Z,33.56
2019-04-04T01:04:19.966Z,33.33
2019-04-04T01:06:53.539Z,33.60
2019-04-04T01:09:27.171Z,33.82
2019-04-04T01:12:02.382Z,33.04
2019-04-04T01:14:36.440Z,33.90
2019-04-04T01:17:11.117Z,33.34
2019-04-04T01:19:44.722Z,33.16
2019-04-04T01:22:18.508Z,32.96
2019-04-04T01:24:52.376Z,32.64
2019-04-04T01:27:26.067Z,32.73
2019-04-04T01:30:01.299Z,32.76
2019-04-04T01:32:34.883Z,32.96
2019-04-04T01:35:10.316Z,33.59
2019-04-04T01:37:44.827Z,33.56
2019-04-04T01:40:19.560Z,33.27
2019-04-04T01:42:53.141Z,32.65
2019-04-04T01:45:26.738Z,32.82
2019-04-04T01:48:00.523Z,32.72
2019-04-04T01:50:34.147Z,32.79
2019-04-04T01:53:07.909Z,32.90
2019-04-04T01:55:42.607Z,33.13
2019-04-04T01:58:16.872Z,32.97
2019-04-04T02:00:50.428Z,32.85
2019-04-04T02:03:49.103Z,32.98
2019-04-04T02:06:24.434Z,33.03
2019-04-04T02:08:58.243Z,33.11
2019-04-04T02:11:51.157Z,32.86
2019-04-04T02:14:25.013Z,33.22
2019-04-04T02:16:59.620Z,32.69
2019-04-04T02:19:33.134Z,32.40
2019-04-04T02:22:07.032Z,32.67
2019-04-04T02:24:41.346Z,31.89
2019-04-04T02:27:15.133Z,31.37
2019-04-04T02:29:48.989Z,32.13
2019-04-04T02:32:26.139Z,31.47
2019-04-04T02:34:59.027Z,31.39
2019-04-04T02:37:32.628Z,30.79
2019-04-04T02:40:09.151Z,30.67
2019-04-04T02:42:43.315Z,30.76
2019-04-04T02:45:16.754Z,30.25
2019-04-04T02:47:51.551Z,30.61
2019-04-04T02:50:26.990Z,30.25
2019-04-04T02:53:00.684Z,30.38
2019-04-04T02:55:34.578Z,30.02
2019-04-04T02:58:08.277Z,29.87
2019-04-04T03:00:41.818Z,29.18
2019-04-04T03:03:16.199Z,28.20
2019-04-04T03:05:52.108Z,27.63
2019-04-04T03:08:26.149Z,27.43
2019-04-04T03:11:00.268Z,27.02
2019-04-04T03:13:33.987Z,27.08
2019-04-04T03:16:07.709Z,26.93
2019-04-04T03:18:41.735Z,27.35
2019-04-04T03:21:16.932Z,26.45
2019-04-04T03:23:50.513Z,26.18
2019-04-04T03:26:24.244Z,26.58
2019-04-04T03:28:59.312Z,26.03
2019-04-04T03:31:37.415Z,26.09
2019-04-04T03:34:11.074Z,26.19
2019-04-04T03:36:43.819Z,26.18
2019-04-04T03:39:19.573Z,26.16
2019-04-04T03:41:52.485Z,26.45
2019-04-04T03:44:26.024Z,26.04
2019-04-04T03:46:59.711Z,26.00
2019-04-04T03:49:33.344Z,25.83
2019-04-04T03:52:11.227Z,25.76
2019-04-04T03:54:43.101Z,25.65
2019-04-04T03:57:16.981Z,25.31
2019-04-04T03:59:50.773Z,25.10
2019-04-04T04:02:24.395Z,24.69
2019-04-04T04:05:00.933Z,24.67
2019-04-04T04:07:33.058Z,24.46
2019-04-04T04:10:07.391Z,24.17
2019-04-04T04:12:43.170Z,24.09
2019-04-04T04:15:16.963Z,24.06
2019-04-04T04:17:50.440Z,23.90
2019-04-04T04:20:24.202Z,24.11
2019-04-04T04:22:57.903Z,23.11
2019-04-04T04:25:36.428Z,23.02
2019-04-04T04:28:08.299Z,22.78
2019-04-04T04:30:41.862Z,23.32
2019-04-04T04:33:15.514Z,23.49
2019-04-04T04:35:50.029Z,23.64
2019-04-04T04:38:26.853Z,23.74
2019-04-04T04:40:58.559Z,23.98
2019-04-04T04:43:33.563Z,24.02
2019-04-04T04:46:07.018Z,24.29
2019-04-04T04:48:40.940Z,24.26
2019-04-04T04:51:14.305Z,24.53
2019-04-04T04:53:50.638Z,24.14
2019-04-04T04:56:24.054Z,24.23
2019-04-04T04:58:57.738Z,23.79
2019-04-04T05:01:31.411Z,23.23
2019-04-04T05:04:05.149Z,23.00
2019-04-04T05:06:38.810Z,22.79
2019-04-04T05:09:13.971Z,21.84
2019-04-04T05:11:50.325Z,21.44
2019-04-04T05:14:23.779Z,21.79
2019-04-04T05:16:59.037Z,22.40
2019-04-04T05:19:32.851Z,22.13
2019-04-04T05:22:07.124Z,21.13
2019-04-04T05:24:42.400Z,21.36
2019-04-04T05:27:16.138Z,21.30
2019-04-04T05:29:49.886Z,21.19
2019-04-04T05:32:23.426Z,20.81
2019-04-04T05:34:56.989Z,20.01
2019-04-04T05:37:30.585Z,20.04
2019-04-04T05:40:04.256Z,20.32
2019-04-04T05:42:37.938Z,20.65
2019-04-04T05:45:14.445Z,20.83
2019-04-04T05:47:48.650Z,20.59
2019-04-04T05:50:23.520Z,20.97
2019-04-04T05:52:56.974Z,21.15
2019-04-04T05:55:30.762Z,21.44
2019-04-04T05:58:04.655Z,21.20
2019-04-04T06:00:38.403Z,21.27
2019-04-04T06:03:13.022Z,21.19
2019-04-04T06:05:48.994Z,21.52
2019-04-04T06:08:22.609Z,22.00
2019-04-04T06:10:55.968Z,22.61
2019-04-04T06:13:29.522Z,23.01
2019-04-04T06:16:04.917Z,23.34
2019-04-04T06:18:38.632Z,23.96
2019-04-04T06:21:12.869Z,24.18
2019-04-04T06:23:49.614Z,24.39
2019-04-04T06:26:23.429Z,24.35
2019-04-04T06:28:57.121Z,24.22
2019-04-04T06:31:31.024Z,24.52
2019-04-04T06:34:05.952Z,24.34
2019-04-04T06:36:50.942Z,24.40
2019-04-04T06:39:15.085Z,24.42
2019-04-04T06:42:06.108Z,24.09
2019-04-04T06:44:38.831Z,24.13
2019-04-04T06:47:13.057Z,23.86
2019-04-04T06:49:47.229Z,23.72
2019-04-04T06:52:23.360Z,23.42
2019-04-04T06:54:57.343Z,23.44
2019-04-04T06:57:30.588Z,23.50
2019-04-04T07:00:04.427Z,23.26
2019-04-04T07:02:38.142Z,23.24
2019-04-04T07:05:13.668Z,23.19
2019-04-04T07:07:47.663Z,23.11
2019-04-04T07:10:23.728Z,23.30
2019-04-04T07:13:09.657Z,23.38
2019-04-04T07:15:32.198Z,23.47
2019-04-04T07:18:05.835Z,23.07
2019-04-04T07:20:40.612Z,22.84
2019-04-04T07:23:14.455Z,22.68
2019-04-04T07:25:47.983Z,21.64
2019-04-04T07:28:22.066Z,21.32
2019-04-04T07:30:55.574Z,21.66
2019-04-04T07:33:30.867Z,21.49
2019-04-04T07:36:04.462Z,22.31
2019-04-04T07:38:38.240Z,21.56
2019-04-04T07:41:14.616Z,21.25
2019-04-04T07:43:49.288Z,21.69
2019-04-04T07:46:23.152Z,21.15
2019-04-04T07:49:00.961Z,21.11
2019-04-04T07:51:34.611Z,20.97
2019-04-04T07:54:08.463Z,21.24
2019-04-04T07:56:43.505Z,20.75
2019-04-04T07:59:16.879Z,20.79
2019-04-04T08:01:51.608Z,20.77
2019-04-04T08:04:25.525Z,21.39
2019-04-04T08:06:59.152Z,20.99
2019-04-04T08:09:34.256Z,21.44
2019-04-04T08:12:07.912Z,21.50
2019-04-04T08:14:43.747Z,21.58
2019-04-04T08:17:19.207Z,21.77
2019-04-04T08:19:59.500Z,22.24
2019-04-04T08:22:27.775Z,23.20
2019-04-04T08:25:01.673Z,24.18
2019-04-04T08:27:35.412Z,24.55
2019-04-04T08:30:10.192Z,25.06
2019-04-04T08:32:43.576Z,25.22
2019-04-04T08:35:17.451Z,25.56
2019-04-04T08:37:52.413Z,24.87
2019-04-04T08:40:26.243Z,24.51
2019-04-04T08:43:01.406Z,24.57
2019-04-04T08:45:35.216Z,24.55
2019-04-04T08:48:09.088Z,24.60
2019-04-04T08:50:43.426Z,24.03
2019-04-04T08:53:18.539Z,20.94
2019-04-04T08:55:52.403Z,19.96
2019-04-04T08:58:26.280Z,18.37
2019-04-04T09:01:01.275Z,18.32
2019-04-04T09:03:36.739Z,18.51
2019-04-04T09:06:10.796Z,17.95
2019-04-04T09:08:47.576Z,17.92
2019-04-04T09:11:20.831Z,17.83
2019-04-04T09:13:55.089Z,17.77
2019-04-04T09:16:28.814Z,17.49
2019-04-04T09:19:02.349Z,17.23
2019-04-04T09:21:36.166Z,17.21
2019-04-04T09:24:09.983Z,17.19
2019-04-04T09:26:43.728Z,16.97
2019-04-04T09:29:17.532Z,17.64
2019-04-04T09:31:51.432Z,17.82
2019-04-04T09:34:25.254Z,17.43
2019-04-04T09:36:59.053Z,17.31
2019-04-04T09:39:33.045Z,17.27
2019-04-04T09:42:06.633Z,17.17
2019-04-04T09:44:40.397Z,17.42
2019-04-04T09:47:18.428Z,17.37
2019-04-04T09:49:52.641Z,16.94
2019-04-04T09:52:31.076Z,17.39
2019-04-04T09:55:05.296Z,16.59
2019-04-04T09:57:39.808Z,17.06
2019-04-04T10:00:18.929Z,16.64
2019-04-04T10:02:53.380Z,17.26
2019-04-04T10:05:27.731Z,16.82
2019-04-04T10:08:02.266Z,16.70
2019-04-04T10:10:37.824Z,17.01
2019-04-04T10:13:12.494Z,16.65
2019-04-04T10:15:47.109Z,16.52
2019-04-04T10:18:21.593Z,16.62
2019-04-04T10:21:11.072Z,16.74
2019-04-04T10:23:38.668Z,16.46
2019-04-04T10:26:15.628Z,16.41
2019-04-04T10:28:51.696Z,16.84
2019-04-04T10:31:27.316Z,16.63
2019-04-04T10:34:03.239Z,16.97
2019-04-04T10:36:38.453Z,16.45
2019-04-04T10:39:27.931Z,16.59
2019-04-04T10:41:52.651Z,16.70
2019-04-04T10:44:27.725Z,16.63
2019-04-04T10:47:02.808Z,16.76
2019-04-04T10:49:37.010Z,16.40
2019-04-04T10:52:13.182Z,16.74
2019-04-04T10:54:47.049Z,16.33
2019-04-04T10:57:22.925Z,17.42
2019-04-04T10:59:57.098Z,16.01
2019-04-04T11:02:31.295Z,15.79
2019-04-04T11:05:05.358Z,16.14
2019-04-04T11:07:41.752Z,16.71
2019-04-04T11:10:17.070Z,16.11
2019-04-04T11:12:52.395Z,16.57
2019-04-04T11:15:33.074Z,17.71
2019-04-04T11:18:12.097Z,16.48
2019-04-04T11:20:46.542Z,17.39
2019-04-04T11:23:22.928Z,16.66
2019-04-04T11:25:58.158Z,16.84
2019-04-04T11:28:35.124Z,17.06
2019-04-04T11:31:15.494Z,17.21
2019-04-04T11:33:51.263Z,17.83
2019-04-04T11:36:28.655Z,17.06
2019-04-04T11:39:04.442Z,17.83
2019-04-04T11:41:38.825Z,17.51
2019-04-04T11:44:14.675Z,17.39
2019-04-04T11:46:51.753Z,17.81
2019-04-04T11:49:30.544Z,17.38
2019-04-04T11:52:11.541Z,17.65
2019-04-04T11:57:40.179Z,17.45
2019-04-04T12:00:21.050Z,17.38
2019-04-04T12:02:57.046Z,17.39
2019-04-04T12:05:34.874Z,17.17
2019-04-04T12:08:09.868Z,17.45
2019-04-04T12:10:46.054Z,17.69
2019-04-04T12:13:22.866Z,17.66
2019-04-04T12:15:58.284Z,17.60
2019-04-04T12:18:33.708Z,17.57
2019-04-04T12:21:07.695Z,17.45
2019-04-04T12:23:43.633Z,17.72
2019-04-04T12:26:19.041Z,18.23
2019-04-04T12:28:55.033Z,18.07
2019-04-04T12:31:29.255Z,18.24
2019-04-04T12:34:04.142Z,18.38
2019-04-04T12:36:39.046Z,18.23
2019-04-04T12:39:16.122Z,18.44
2019-04-04T12:41:50.097Z,18.88
2019-04-04T12:45:12.625Z,18.65
2019-04-04T12:47:01.518Z,19.26
2019-04-04T12:49:37.969Z,19.19
2019-04-04T12:52:14.707Z,18.89
2019-04-04T12:54:50.574Z,18.98
2019-04-04T12:57:25.063Z,19.09
2019-04-04T13:00:00.762Z,19.26
2019-04-04T13:02:34.749Z,19.50
2019-04-04T13:05:11.172Z,19.56
2019-04-04T13:07:45.556Z,19.27
2019-04-04T13:10:32.110Z,19.14
2019-04-04T13:12:56.191Z,19.07
2019-04-04T13:15:30.754Z,18.98
2019-04-04T13:18:06.352Z,18.94
2019-04-04T13:20:41.922Z,18.82
2019-04-04T13:23:17.622Z,18.71
2019-04-04T13:25:51.196Z,18.54
2019-04-04T13:28:29.002Z,18.59
2019-04-04T13:31:05.295Z,18.93
2019-04-04T13:33:42.858Z,19.04
2019-04-04T13:36:17.772Z,19.79
2019-04-04T13:38:55.171Z,19.72
2019-04-04T13:41:30.105Z,19.81
2019-04-04T13:44:05.146Z,20.04
2019-04-04T13:46:43.626Z,20.42
2019-04-04T13:49:18.436Z,20.18
2019-04-04T13:51:55.267Z,20.66
2019-04-04T13:54:31.991Z,20.71
2019-04-04T13:57:16.670Z,21.11
2019-04-04T13:59:53.853Z,21.36
2019-04-04T14:02:26.979Z,22.34
2019-04-04T14:05:09.769Z,22.30
2019-04-04T14:07:37.236Z,23.10
2019-04-04T14:10:11.658Z,23.75
2019-04-04T14:12:45.236Z,23.88
2019-04-04T14:15:20.530Z,24.05
2019-04-04T14:17:54.175Z,24.07
2019-04-04T14:20:27.873Z,24.40
2019-04-04T14:23:02.177Z,24.33
2019-04-04T14:25:35.969Z,24.23
2019-04-04T14:28:11.427Z,24.63
2019-04-04T14:30:46.894Z,25.50
2019-04-04T14:33:27.064Z,25.51
2019-04-04T14:36:02.623Z,25.28
2019-04-04T14:38:36.707Z,25.87
2019-04-04T14:41:12.080Z,26.47
2019-04-04T14:43:51.653Z,26.58
2019-04-04T14:46:24.272Z,26.75
2019-04-04T14:48:58.298Z,27.20
2019-04-04T14:51:32.885Z,27.29
2019-04-04T14:54:06.895Z,27.71
2019-04-04T14:56:40.821Z,28.15
2019-04-04T14:59:14.206Z,28.58
2019-04-04T15:01:47.557Z,28.79
2019-04-04T15:04:21.220Z,29.27
2019-04-04T15:06:56.465Z,29.50
2019-04-04T15:09:30.275Z,29.75
2019-04-04T15:12:24.674Z,29.76
2019-04-04T15:14:58.797Z,29.98
2019-04-04T15:17:32.946Z,30.28
2019-04-04T15:20:07.714Z,30.49
2019-04-04T15:22:42.583Z,30.78
2019-04-04T15:25:16.627Z,30.89
2019-04-04T15:27:50.581Z,31.21
2019-04-04T15:30:24.237Z,31.15
2019-04-04T15:32:58.148Z,31.13
2019-04-04T15:35:31.818Z,31.38
2019-04-04T15:38:05.685Z,31.48
2019-04-04T15:40:39.399Z,31.45
2019-04-04T15:43:13.077Z,31.38
2019-04-04T15:45:46.842Z,31.25
2019-04-04T15:48:20.468Z,31.65
2019-04-04T15:50:54.236Z,32.00
2019-04-04T15:53:28.169Z,31.93
2019-04-04T15:56:02.037Z,32.41
2019-04-04T15:58:35.953Z,32.21
2019-04-04T16:01:11.949Z,32.37
2019-04-04T16:03:45.723Z,32.61
2019-04-04T16:06:19.683Z,32.93
2019-04-04T16:08:54.734Z,33.01
2019-04-04T16:11:48.482Z,33.17
2019-04-04T16:14:11.409Z,33.60
2019-04-04T16:16:45.217Z,33.42
2019-04-04T16:19:20.513Z,33.55
2019-04-04T16:21:54.235Z,33.43
2019-04-04T16:24:28.108Z,33.28
2019-04-04T16:27:07.195Z,33.86
2019-04-04T16:29:40.114Z,34.14
2019-04-04T16:32:13.782Z,33.69
2019-04-04T16:34:47.944Z,33.54
2019-04-04T16:37:22.465Z,34.05
2019-04-04T16:40:07.825Z,34.08
2019-04-04T16:42:31.143Z,34.11
2019-04-04T16:45:07.518Z,34.29
2019-04-04T16:47:42.184Z,34.42
2019-04-04T16:50:16.906Z,34.56
2019-04-04T16:52:50.641Z,34.63
2019-04-04T16:55:24.537Z,34.62
2019-04-04T16:57:58.924Z,34.97
2019-04-04T17:00:33.383Z,34.58
2019-04-04T17:03:07.002Z,34.62
2019-04-04T17:05:41.765Z,34.63
2019-04-04T17:08:16.119Z,35.04
2019-04-04T17:10:50.389Z,34.73
2019-04-04T17:13:25.547Z,34.67
2019-04-04T17:15:59.383Z,34.76
2019-04-04T17:18:33.150Z,34.61
2019-04-04T17:21:06.893Z,34.63
2019-04-04T17:23:40.442Z,34.90
2019-04-04T17:26:14.509Z,35.01
2019-04-04T17:28:48.296Z,34.82
2019-04-04T17:31:22.095Z,34.68
2019-04-04T17:33:56.172Z,34.57
2019-04-04T17:36:30.665Z,35.07
2019-04-04T17:39:05.121Z,34.71
2019-04-04T17:41:40.600Z,35.00
2019-04-04T17:44:14.957Z,35.86
2019-04-04T17:46:48.658Z,34.52
2019-04-04T17:49:22.733Z,34.82
2019-04-04T17:51:59.621Z,34.91
2019-04-04T17:54:33.569Z,35.08
2019-04-04T17:57:07.546Z,35.02
2019-04-04T17:59:42.990Z,35.01
2019-04-04T18:02:16.720Z,35.03
2019-04-04T18:04:51.721Z,35.07
2019-04-04T18:07:25.658Z,35.28
2019-04-04T18:09:59.686Z,35.36
2019-04-04T18:12:40.230Z,35.50
2019-04-04T18:15:10.594Z,35.86
2019-04-04T18:17:44.432Z,36.12
2019-04-04T18:20:18.887Z,35.49
2019-04-04T18:22:52.643Z,35.73
2019-04-04T18:25:26.374Z,36.07
2019-04-04T18:28:00.516Z,36.46
2019-04-04T18:30:34.443Z,36.31
2019-04-04T18:33:08.385Z,36.18
2019-04-04T18:35:42.225Z,36.65
2019-04-04T18:38:16.354Z,36.48
2019-04-04T18:40:50.209Z,36.57
2019-04-04T18:43:24.000Z,36.69
2019-04-04T18:45:57.565Z,36.61
2019-04-04T18:48:33.320Z,36.81
2019-04-04T18:51:07.201Z,36.87
2019-04-04T18:53:40.845Z,36.97
2019-04-04T18:56:14.702Z,37.05
2019-04-04T18:58:48.972Z,36.95
2019-04-04T19:01:23.388Z,37.25
2019-04-04T19:03:57.475Z,37.07
2019-04-04T19:06:31.929Z,37.65
2019-04-04T19:09:14.784Z,37.31
2019-04-04T19:11:41.568Z,37.49
2019-04-04T19:14:15.554Z,37.58
2019-04-04T19:16:48.927Z,37.55
2019-04-04T19:19:22.784Z,37.88
2019-04-04T19:21:56.654Z,38.02
2019-04-04T19:24:30.564Z,38.07
2019-04-04T19:27:04.361Z,38.02
2019-04-04T19:29:37.977Z,38.13
2019-04-04T19:32:11.879Z,39.04
2019-04-04T19:34:45.499Z,38.36
2019-04-04T19:37:19.758Z,38.77
2019-04-04T19:39:54.479Z,38.76
2019-04-04T19:42:28.338Z,38.68
2019-04-04T19:45:02.085Z,38.88
2019-04-04T19:47:37.007Z,39.30
2019-04-04T19:50:17.475Z,39.48
2019-04-04T19:52:51.572Z,39.78
2019-04-04T19:55:25.446Z,39.62
2019-04-04T19:57:59.728Z,40.02
2019-04-04T20:00:33.471Z,39.92
2019-04-04T20:03:07.455Z,39.92
2019-04-04T20:05:44.260Z,40.72
2019-04-04T20:08:16.655Z,40.47
2019-04-04T20:10:50.415Z,40.55
2019-04-04T20:13:30.733Z,40.43
2019-04-04T20:15:58.669Z,41.23
2019-04-04T20:18:32.339Z,41.01
2019-04-04T20:21:07.639Z,41.18
2019-04-04T20:23:41.557Z,41.24
2019-04-04T20:26:15.490Z,41.35
2019-04-04T20:28:49.500Z,41.37
2019-04-04T20:31:23.466Z,41.29
2019-04-04T20:34:01.765Z,41.57
2019-04-04T20:36:32.215Z,41.75
2019-04-04T20:39:07.081Z,41.63
2019-04-04T20:41:42.585Z,41.75
2019-04-04T20:44:16.958Z,42.21
2019-04-04T20:46:51.585Z,41.83
2019-04-04T20:49:25.651Z,42.38
2019-04-04T20:51:59.683Z,42.01
2019-04-04T20:54:35.130Z,42.00
2019-04-04T20:57:10.453Z,42.19
2019-04-04T20:59:43.784Z,42.46
2019-04-04T21:02:17.619Z,42.29
2019-04-04T21:04:54.182Z,42.68
2019-04-04T21:07:26.761Z,42.71
2019-04-04T21:10:00.416Z,42.46
2019-04-04T21:12:34.307Z,42.72
2019-04-04T21:15:08.840Z,42.49
2019-04-04T21:17:42.938Z,42.62
2019-04-04T21:20:16.743Z,43.34
2019-04-04T21:22:50.458Z,43.05
2019-04-04T21:25:24.726Z,42.86
2019-04-04T21:27:58.742Z,43.13
2019-04-04T21:30:32.952Z,43.50
2019-04-04T21:33:07.911Z,43.76
2019-04-04T21:35:41.882Z,43.47
2019-04-04T21:38:15.514Z,44.35
2019-04-04T21:40:49.033Z,44.13
2019-04-04T21:43:22.999Z,44.38
2019-04-04T21:45:57.420Z,44.28
2019-04-04T21:48:38.414Z,44.67
2019-04-04T21:51:12.287Z,44.84
2019-04-04T21:53:46.009Z,45.38
2019-04-04T21:56:20.448Z,45.57
2019-04-04T21:58:54.488Z,46.32
2019-04-04T22:01:30.187Z,47.88
2019-04-04T22:04:04.176Z,51.39
2019-04-04T22:06:38.098Z,52.86
2019-04-04T22:09:12.701Z,56.26
2019-04-04T22:11:47.779Z,58.46
2019-04-04T22:14:22.409Z,58.58
2019-04-04T22:16:56.305Z,60.17
2019-04-04T22:19:29.899Z,60.12
2019-04-04T22:22:03.688Z,60.05
2019-04-04T22:24:37.646Z,60.92
2019-04-04T22:27:11.539Z,60.77
2019-04-04T22:29:46.975Z,60.79
2019-04-04T22:32:21.218Z,61.41
2019-04-04T22:34:55.257Z,61.60
2019-04-04T22:37:29.222Z,62.28
2019-04-04T22:40:03.104Z,62.79
2019-04-04T22:42:37.162Z,63.40
2019-04-04T22:45:13.299Z,63.32
2019-04-04T22:47:46.981Z,64.21
2019-04-04T22:50:20.721Z,64.15
2019-04-04T22:52:54.537Z,64.19
2019-04-04T22:55:29.823Z,64.68
2019-04-04T22:58:05.349Z,63.83
2019-04-04T23:00:39.892Z,63.99
2019-04-04T23:03:16.109Z,63.60
2019-04-04T23:05:52.992Z,62.39
2019-04-04T23:08:30.449Z,62.74
2019-04-04T23:11:14.436Z,62.42
2019-04-04T23:13:47.114Z,62.01
2019-04-04T23:16:23.985Z,61.91
2019-04-04T23:19:02.578Z,61.76
2019-04-04T23:21:39.959Z,61.47
2019-04-04T23:24:16.693Z,61.14
2019-04-04T23:26:52.392Z,61.89
2019-04-04T23:29:27.327Z,61.77
2019-04-04T23:32:02.809Z,61.53
2019-04-04T23:34:37.912Z,61.63
2019-04-04T23:37:13.497Z,61.13
2019-04-04T23:39:47.850Z,61.36
2019-04-04T23:42:23.268Z,61.01
2019-04-04T23:45:01.182Z,60.79
2019-04-04T23:47:42.033Z,60.62
2019-04-04T23:50:08.726Z,60.91
2019-04-04T23:52:44.162Z,60.69
2019-04-04T23:55:18.104Z,60.56
2019-04-04T23:57:52.536Z,60.37
